createdAt,value
2023-02-13T00:00:47.689Z,3.09
2023-02-13T00:03:15.039Z,3.22
2023-02-13T00:05:42.383Z,3.03
2023-02-13T00:08:09.168Z,3.10
2023-02-13T00:10:36.924Z,2.91
2023-02-13T00:13:03.810Z,2.85
2023-02-13T00:15:30.763Z,2.67
2023-02-13T00:17:57.628Z,2.54
2023-02-13T00:20:24.443Z,2.54
2023-02-13T00:22:51.358Z,2.40
2023-02-13T00:25:18.167Z,2.33
2023-02-13T00:27:44.875Z,2.46
2023-02-13T00:30:12.288Z,2.59
2023-02-13T00:32:39.352Z,2.32
2023-02-13T00:35:06.409Z,2.19
2023-02-13T00:37:34.504Z,2.07
2023-02-13T00:40:05.134Z,2.09
2023-02-13T00:42:35.364Z,2.06
2023-02-13T00:45:02.114Z,1.93
2023-02-13T00:47:30.102Z,2.21
2023-02-13T00:49:58.865Z,2.02
2023-02-13T00:52:25.659Z,1.90
2023-02-13T00:54:52.610Z,1.88
2023-02-13T00:57:19.581Z,1.90
2023-02-13T00:59:46.278Z,1.79
2023-02-13T01:02:16.007Z,1.78
2023-02-13T01:04:42.859Z,1.74
2023-02-13T01:07:09.630Z,1.70
2023-02-13T01:09:36.658Z,1.72
2023-02-13T01:12:03.997Z,1.64
2023-02-13T01:14:30.844Z,1.49
2023-02-13T01:16:57.747Z,1.33
2023-02-13T01:19:24.623Z,1.39
2023-02-13T01:21:51.634Z,1.26
2023-02-13T01:24:18.346Z,1.23
2023-02-13T01:26:45.174Z,1.11
2023-02-13T01:29:13.938Z,1.16
2023-02-13T01:31:40.675Z,1.19
2023-02-13T01:34:07.467Z,0.99
2023-02-13T01:36:34.211Z,0.88
2023-02-13T01:39:00.999Z,0.81
2023-02-13T01:41:34.689Z,0.78
2023-02-13T01:44:05.272Z,0.71
2023-02-13T01:46:35.363Z,0.95
2023-02-13T01:49:13.038Z,0.80
2023-02-13T01:51:41.130Z,0.79
2023-02-13T01:54:13.380Z,0.77
2023-02-13T01:56:52.809Z,0.80
2023-02-13T01:59:24.323Z,0.67
2023-02-13T02:01:51.695Z,0.63
2023-02-13T02:04:31.956Z,0.66
2023-02-13T02:07:03.749Z,0.72
2023-02-13T02:09:35.868Z,0.78
2023-02-13T02:12:23.846Z,0.86
2023-02-13T02:14:52.891Z,0.79
2023-02-13T02:17:21.861Z,0.85
2023-02-13T02:19:57.946Z,0.79
2023-02-13T02:22:42.612Z,0.80
2023-02-13T02:25:46.082Z,0.78
2023-02-13T02:28:50.380Z,0.84
2023-02-13T02:31:40.170Z,0.76
2023-02-13T02:34:16.142Z,0.96
2023-02-13T02:36:57.763Z,0.94
2023-02-13T02:39:49.273Z,1.04
2023-02-13T02:42:42.795Z,0.98
2023-02-13T02:45:25.744Z,1.15
2023-02-13T02:48:16.527Z,1.17
2023-02-13T02:50:57.988Z,1.10
2023-02-13T02:53:48.241Z,1.23
2023-02-13T02:56:23.223Z,1.17
2023-02-13T02:59:16.575Z,1.14
2023-02-13T03:01:57.811Z,1.18
2023-02-13T03:04:52.870Z,1.12
2023-02-13T03:07:20.770Z,1.16
2023-02-13T03:12:46.207Z,1.09
2023-02-13T03:15:12.943Z,1.06
2023-02-13T03:17:57.772Z,1.11
2023-02-13T03:23:37.240Z,1.17
2023-02-13T03:26:14.822Z,1.15
2023-02-13T03:28:56.862Z,1.15
2023-02-13T03:31:43.759Z,1.22
2023-02-13T03:34:16.317Z,1.11
2023-02-13T03:36:56.848Z,1.05
2023-02-13T03:39:42.641Z,1.04
2023-02-13T03:42:52.083Z,1.02
2023-02-13T03:45:48.136Z,0.97
2023-02-13T03:48:55.384Z,0.96
2023-02-13T03:51:32.588Z,0.98
2023-02-13T03:54:08.345Z,1.11
2023-02-13T03:59:35.086Z,1.15
2023-02-13T04:02:13.879Z,1.19
2023-02-13T04:04:57.927Z,1.04
2023-02-13T04:07:32.296Z,1.19
2023-02-13T04:10:06.141Z,1.13
2023-02-13T04:12:57.803Z,1.08
2023-02-13T04:15:46.448Z,0.84
2023-02-13T04:18:29.906Z,0.89
2023-02-13T04:23:22.569Z,0.84
2023-02-13T04:25:55.281Z,1.02
2023-02-13T04:28:22.485Z,0.76
2023-02-13T04:30:50.735Z,1.07
2023-02-13T04:33:17.677Z,1.02
2023-02-13T04:35:44.677Z,1.09
2023-02-13T04:38:14.587Z,1.00
2023-02-13T04:40:41.337Z,1.16
2023-02-13T04:43:08.883Z,1.18
2023-02-13T04:45:35.638Z,0.93
2023-02-13T04:48:02.370Z,1.04
2023-02-13T04:50:29.153Z,1.10
2023-02-13T04:52:57.852Z,1.11
2023-02-13T04:55:26.080Z,1.10
2023-02-13T04:57:54.767Z,1.06
2023-02-13T05:00:28.115Z,1.06
2023-02-13T05:02:57.970Z,1.04
2023-02-13T05:05:25.227Z,1.07
2023-02-13T05:07:51.975Z,1.12
2023-02-13T05:10:18.759Z,0.88
2023-02-13T05:12:45.861Z,1.09
2023-02-13T05:15:12.831Z,1.13
2023-02-13T05:17:39.865Z,1.13
2023-02-13T05:20:07.289Z,0.92
2023-02-13T05:22:52.688Z,0.84
2023-02-13T05:25:19.650Z,1.06
2023-02-13T05:27:46.488Z,1.13
2023-02-13T05:30:14.505Z,1.02
2023-02-13T05:32:43.433Z,1.06
2023-02-13T05:35:10.301Z,1.02
2023-02-13T05:37:37.077Z,0.81
2023-02-13T05:40:04.132Z,1.00
2023-02-13T05:42:33.823Z,0.88
2023-02-13T05:45:00.536Z,0.97
2023-02-13T05:47:27.227Z,0.93
2023-02-13T05:49:53.971Z,1.05
2023-02-13T05:52:28.520Z,1.00
2023-02-13T05:54:55.358Z,0.81
2023-02-13T05:57:22.099Z,1.01
2023-02-13T05:59:49.037Z,0.94
2023-02-13T06:02:17.715Z,0.64
2023-02-13T06:04:44.513Z,0.96
2023-02-13T06:07:11.321Z,0.98
2023-02-13T06:09:38.548Z,0.98
2023-02-13T06:12:05.479Z,0.92
2023-02-13T06:14:32.408Z,1.02
2023-02-13T06:17:01.534Z,0.84
2023-02-13T06:19:28.376Z,0.94
2023-02-13T06:21:55.133Z,0.88
2023-02-13T06:24:21.847Z,0.96
2023-02-13T06:26:48.642Z,1.07
2023-02-13T06:29:15.376Z,1.07
2023-02-13T06:31:42.136Z,1.02
2023-02-13T06:34:12.412Z,1.01
2023-02-13T06:36:39.236Z,1.07
2023-02-13T06:39:06.031Z,0.97
2023-02-13T06:41:32.943Z,1.13
2023-02-13T06:43:59.702Z,1.17
2023-02-13T06:46:26.648Z,0.91
2023-02-13T06:48:53.445Z,0.88
2023-02-13T06:51:20.087Z,0.90
2023-02-13T06:53:46.801Z,0.96
2023-02-13T06:56:13.566Z,0.86
2023-02-13T06:58:40.366Z,1.13
2023-02-13T07:01:07.350Z,0.74
2023-02-13T07:03:34.112Z,0.99
2023-02-13T07:06:00.808Z,0.93
2023-02-13T07:08:27.888Z,1.14
2023-02-13T07:10:54.706Z,1.13
2023-02-13T07:13:24.952Z,1.04
2023-02-13T07:15:51.875Z,1.11
2023-02-13T07:18:18.603Z,1.00
2023-02-13T07:20:45.547Z,0.97
2023-02-13T07:23:12.368Z,0.95
2023-02-13T07:25:39.137Z,0.94
2023-02-13T07:28:06.981Z,0.92
2023-02-13T07:30:35.383Z,1.06
2023-02-13T07:33:06.193Z,1.13
2023-02-13T07:35:33.515Z,1.06
2023-02-13T07:38:00.980Z,0.93
2023-02-13T07:40:28.211Z,1.01
2023-02-13T07:45:25.195Z,1.18
2023-02-13T07:47:51.932Z,1.13
2023-02-13T07:50:18.711Z,0.92
2023-02-13T07:52:45.524Z,0.83
2023-02-13T07:55:12.941Z,0.98
2023-02-13T07:57:42.600Z,1.18
2023-02-13T08:00:09.839Z,1.17
2023-02-13T08:02:39.695Z,1.17
2023-02-13T08:05:07.020Z,0.95
2023-02-13T08:07:34.157Z,0.95
2023-02-13T08:10:19.500Z,0.94
2023-02-13T08:12:46.861Z,0.98
2023-02-13T08:15:15.687Z,1.13
2023-02-13T08:17:42.397Z,0.99
2023-02-13T08:20:09.779Z,1.30
2023-02-13T08:22:37.832Z,1.25
2023-02-13T08:25:06.242Z,1.21
2023-02-13T08:27:35.256Z,1.27
2023-02-13T08:30:03.385Z,1.32
2023-02-13T08:32:30.268Z,1.09
2023-02-13T08:34:57.935Z,1.22
2023-02-13T08:37:24.767Z,0.97
2023-02-13T08:39:51.725Z,1.05
2023-02-13T08:42:18.544Z,1.19
2023-02-13T08:44:45.403Z,1.21
2023-02-13T08:47:12.295Z,1.23
2023-02-13T08:49:38.942Z,1.30
2023-02-13T08:52:06.239Z,0.99
2023-02-13T08:54:35.605Z,1.12
2023-02-13T08:57:02.476Z,1.09
2023-02-13T08:59:29.312Z,1.21
2023-02-13T09:01:57.955Z,1.46
2023-02-13T09:04:24.639Z,1.34
2023-02-13T09:06:51.495Z,1.65
2023-02-13T09:09:18.237Z,1.46
2023-02-13T09:11:44.944Z,1.20
2023-02-13T09:14:11.648Z,1.41
2023-02-13T09:16:38.403Z,1.66
2023-02-13T09:19:05.187Z,1.29
2023-02-13T09:21:32.114Z,1.46
2023-02-13T09:23:58.853Z,1.52
2023-02-13T09:26:25.770Z,1.51
2023-02-13T09:28:52.567Z,1.68
2023-02-13T09:31:24.595Z,1.67
2023-02-13T09:33:51.392Z,1.88
2023-02-13T09:36:20.836Z,1.89
2023-02-13T09:38:51.761Z,2.02
2023-02-13T09:41:26.788Z,1.97
2023-02-13T09:43:59.427Z,1.95
2023-02-13T09:46:29.661Z,2.14
2023-02-13T09:48:58.040Z,1.87
2023-02-13T09:51:26.866Z,2.43
2023-02-13T09:53:57.108Z,2.37
2023-02-13T09:56:39.160Z,2.09
2023-02-13T09:59:24.215Z,2.48
2023-02-13T10:01:54.033Z,2.27
2023-02-13T10:04:32.335Z,2.22
2023-02-13T10:07:17.760Z,2.15
2023-02-13T10:09:58.100Z,2.16
2023-02-13T10:12:39.152Z,2.23
2023-02-13T10:15:37.400Z,2.19
2023-02-13T10:18:09.332Z,2.36
2023-02-13T10:20:48.183Z,2.53
2023-02-13T10:23:29.556Z,2.72
2023-02-13T10:25:58.336Z,2.61
2023-02-13T10:31:24.484Z,2.26
2023-02-13T10:33:53.339Z,2.53
2023-02-13T10:36:25.808Z,2.29
2023-02-13T10:38:58.139Z,2.65
2023-02-13T10:41:46.792Z,2.34
2023-02-13T10:44:32.579Z,2.39
2023-02-13T10:47:24.477Z,2.35
2023-02-13T10:49:54.142Z,2.67
2023-02-13T10:52:58.196Z,2.76
2023-02-13T10:55:53.274Z,3.23
2023-02-13T10:58:41.239Z,3.08
2023-02-13T11:01:25.734Z,3.36
2023-02-13T11:03:57.131Z,3.46
2023-02-13T11:06:23.990Z,3.39
2023-02-13T11:08:50.802Z,3.87
2023-02-13T11:11:40.639Z,3.82
2023-02-13T11:14:21.280Z,4.15
2023-02-13T11:16:58.005Z,3.93
2023-02-13T11:19:35.821Z,3.78
2023-02-13T11:22:06.172Z,4.06
2023-02-13T11:24:33.377Z,4.35
2023-02-13T11:27:05.989Z,4.18
2023-02-13T11:29:34.568Z,4.17
2023-02-13T11:32:21.416Z,3.96
2023-02-13T11:34:50.825Z,3.50
2023-02-13T11:37:23.498Z,3.76
2023-02-13T11:39:53.099Z,4.16
2023-02-13T11:42:26.003Z,3.97
2023-02-13T11:44:58.128Z,4.10
2023-02-13T11:47:55.136Z,4.23
2023-02-13T11:50:25.732Z,4.69
2023-02-13T11:52:57.087Z,4.29
2023-02-13T11:55:31.074Z,4.40
2023-02-13T11:58:03.421Z,5.68
2023-02-13T12:00:43.164Z,5.23
2023-02-13T12:03:22.035Z,4.86
2023-02-13T12:05:58.498Z,5.55
2023-02-13T12:08:25.539Z,4.74
2023-02-13T12:10:53.828Z,7.53
2023-02-13T12:13:33.250Z,9.10
2023-02-13T12:16:04.251Z,10.09
2023-02-13T12:18:38.971Z,11.02
2023-02-13T12:21:47.321Z,10.61
2023-02-13T12:24:20.079Z,11.77
2023-02-13T12:26:58.225Z,12.08
2023-02-13T12:29:39.153Z,12.87
2023-02-13T12:32:19.631Z,12.77
2023-02-13T12:34:58.408Z,13.82
2023-02-13T12:37:48.386Z,12.32
2023-02-13T12:43:50.036Z,12.88
2023-02-13T12:46:35.925Z,13.49
2023-02-13T12:49:30.423Z,12.58
2023-02-13T12:51:58.123Z,12.29
2023-02-13T12:54:45.365Z,12.82
2023-02-13T12:57:30.250Z,12.34
2023-02-13T13:00:00.949Z,12.69
2023-02-13T13:02:49.146Z,12.89
2023-02-13T13:05:31.210Z,14.27
2023-02-13T13:08:29.699Z,13.18
2023-02-13T13:10:58.571Z,12.42
2023-02-13T13:13:37.725Z,12.62
2023-02-13T13:16:38.026Z,12.17
2023-02-13T13:19:27.990Z,12.93
2023-02-13T13:22:00.524Z,12.58
2023-02-13T13:24:50.359Z,11.53
2023-02-13T13:27:44.448Z,13.23
2023-02-13T13:30:30.288Z,13.71
2023-02-13T13:32:58.185Z,12.57
2023-02-13T13:35:25.252Z,13.99
2023-02-13T13:38:02.848Z,14.41
2023-02-13T13:40:41.621Z,14.00
2023-02-13T13:43:22.912Z,12.56
2023-02-13T13:48:49.216Z,12.42
2023-02-13T13:51:18.671Z,13.95
2023-02-13T13:53:58.202Z,14.08
2023-02-13T13:56:26.491Z,13.08
2023-02-13T13:58:55.002Z,13.58
2023-02-13T14:01:26.311Z,13.92
2023-02-13T14:03:58.171Z,14.02
2023-02-13T14:06:41.150Z,12.88
2023-02-13T14:09:27.970Z,12.98
2023-02-13T14:11:59.644Z,14.47
2023-02-13T14:14:29.500Z,13.27
2023-02-13T14:16:58.314Z,13.37
2023-02-13T14:19:38.541Z,14.45
2023-02-13T14:22:20.430Z,14.13
2023-02-13T14:24:58.146Z,13.24
2023-02-13T14:27:39.479Z,14.43
2023-02-13T14:30:26.225Z,13.32
2023-02-13T14:32:53.580Z,14.65
2023-02-13T14:35:26.347Z,13.59
2023-02-13T14:37:59.598Z,13.69
2023-02-13T14:40:32.348Z,13.88
2023-02-13T14:43:22.208Z,14.12
2023-02-13T14:45:58.187Z,13.42
2023-02-13T14:48:44.881Z,13.25
2023-02-13T14:51:45.220Z,13.54
2023-02-13T14:54:26.768Z,14.39
2023-02-13T14:56:58.145Z,13.32
2023-02-13T14:59:32.749Z,13.13
2023-02-13T15:02:08.304Z,12.61
2023-02-13T15:04:45.702Z,14.77
2023-02-13T15:07:23.841Z,13.08
2023-02-13T15:12:35.726Z,11.77
2023-02-13T15:15:18.130Z,10.12
2023-02-13T15:17:45.042Z,9.23
2023-02-13T15:20:26.990Z,8.92
2023-02-13T15:22:54.149Z,8.13
2023-02-13T15:25:29.936Z,8.21
2023-02-13T15:30:31.105Z,10.19
2023-02-13T15:33:04.330Z,11.56
2023-02-13T15:35:39.573Z,11.32
2023-02-13T15:38:33.647Z,11.24
2023-02-13T15:41:10.159Z,12.14
2023-02-13T15:43:58.309Z,10.90
2023-02-13T15:46:28.236Z,11.78
2023-02-13T15:48:58.306Z,11.05
2023-02-13T15:51:28.072Z,10.88
2023-02-13T15:53:58.229Z,11.30
2023-02-13T15:56:25.817Z,10.34
2023-02-13T15:58:54.583Z,8.60
2023-02-13T16:01:21.861Z,8.15
2023-02-13T16:03:58.304Z,7.65
2023-02-13T16:06:25.122Z,7.64
2023-02-13T16:08:54.158Z,7.14
2023-02-13T16:11:41.373Z,6.78
2023-02-13T16:14:12.900Z,6.67
2023-02-13T16:16:53.735Z,6.51
2023-02-13T16:19:52.406Z,6.40
2023-02-13T16:22:39.233Z,6.37
2023-02-13T16:25:31.389Z,6.25
2023-02-13T16:28:01.758Z,6.11
2023-02-13T16:30:30.714Z,5.98
2023-02-13T16:33:22.504Z,5.88
2023-02-13T16:35:57.262Z,5.77
2023-02-13T16:38:41.893Z,5.69
2023-02-13T16:41:17.826Z,5.56
2023-02-13T16:43:52.748Z,5.54
2023-02-13T16:46:34.804Z,5.49
2023-02-13T16:49:10.466Z,5.35
2023-02-13T16:51:43.346Z,5.29
2023-02-13T16:54:43.602Z,5.26
2023-02-13T16:57:13.434Z,5.24
2023-02-13T16:59:54.518Z,5.18
2023-02-13T17:02:38.657Z,5.05
2023-02-13T17:05:08.478Z,4.84
2023-02-13T17:07:50.806Z,4.86
2023-02-13T17:10:34.275Z,4.68
2023-02-13T17:13:03.710Z,4.80
2023-02-13T17:15:44.098Z,4.80
2023-02-13T17:18:10.865Z,4.69
2023-02-13T17:20:40.972Z,4.45
2023-02-13T17:23:17.684Z,4.41
2023-02-13T17:25:46.679Z,4.29
2023-02-13T17:28:29.386Z,4.38
2023-02-13T17:30:58.982Z,4.33
2023-02-13T17:33:29.466Z,4.40
2023-02-13T17:38:23.487Z,4.49
2023-02-13T17:40:50.609Z,4.34
2023-02-13T17:43:32.410Z,4.33
2023-02-13T17:46:01.455Z,4.07
2023-02-13T17:48:28.582Z,4.42
2023-02-13T17:50:55.510Z,4.07
2023-02-13T17:53:30.669Z,3.90
2023-02-13T17:56:07.215Z,3.74
2023-02-13T17:58:33.916Z,3.58
2023-02-13T18:01:01.093Z,3.73
2023-02-13T18:03:28.554Z,3.68
2023-02-13T18:08:23.242Z,3.62
2023-02-13T18:13:23.256Z,3.55
2023-02-13T18:15:50.144Z,3.33
2023-02-13T18:18:17.815Z,3.40
2023-02-13T18:20:45.204Z,3.25
2023-02-13T18:23:12.081Z,3.21
2023-02-13T18:25:38.938Z,3.14
2023-02-13T18:28:15.452Z,3.10
2023-02-13T18:30:45.385Z,2.96
2023-02-13T18:33:12.465Z,2.86
2023-02-13T18:35:45.848Z,2.90
2023-02-13T18:38:12.600Z,2.82
2023-02-13T18:40:40.007Z,2.78
2023-02-13T18:43:06.793Z,2.56
2023-02-13T18:45:33.670Z,2.57
2023-02-13T18:48:03.729Z,2.79
2023-02-13T18:50:30.635Z,2.67
2023-02-13T18:52:58.364Z,2.52
2023-02-13T18:55:25.812Z,2.43
2023-02-13T18:57:53.549Z,2.53
2023-02-13T19:00:23.794Z,2.32
2023-02-13T19:02:50.736Z,2.51
2023-02-13T19:05:18.021Z,2.35
2023-02-13T19:07:45.250Z,2.46
2023-02-13T19:10:12.045Z,2.41
2023-02-13T19:12:42.065Z,2.31
2023-02-13T19:15:12.913Z,2.26
2023-02-13T19:17:39.973Z,2.34
2023-02-13T19:20:07.583Z,2.10
2023-02-13T19:22:34.342Z,1.87
2023-02-13T19:25:02.293Z,1.94
2023-02-13T19:27:29.185Z,2.04
2023-02-13T19:32:23.243Z,1.77
2023-02-13T19:34:50.225Z,1.72
2023-02-13T19:37:17.314Z,1.65
2023-02-13T19:39:44.376Z,1.70
2023-02-13T19:42:11.335Z,1.51
2023-02-13T19:44:38.200Z,1.44
2023-02-13T19:47:04.978Z,1.52
2023-02-13T19:49:31.736Z,1.53
2023-02-13T19:51:58.965Z,1.53
2023-02-13T19:54:25.770Z,1.38
2023-02-13T19:56:54.903Z,1.25
2023-02-13T19:59:21.692Z,1.22
2023-02-13T20:01:48.718Z,1.44
2023-02-13T20:04:18.727Z,1.25
2023-02-13T20:06:45.526Z,1.28
2023-02-13T20:09:14.249Z,1.13
2023-02-13T20:11:41.692Z,1.10
2023-02-13T20:14:11.728Z,1.14
2023-02-13T20:16:39.075Z,1.29
2023-02-13T20:19:09.902Z,1.10
2023-02-13T20:21:38.645Z,1.15
2023-02-13T20:24:05.810Z,1.09
2023-02-13T20:26:38.271Z,1.00
2023-02-13T20:29:05.882Z,0.97
2023-02-13T20:31:36.772Z,1.08
2023-02-13T20:34:06.608Z,0.98
2023-02-13T20:36:36.266Z,0.80
2023-02-13T20:39:05.708Z,0.82
2023-02-13T20:41:35.155Z,0.77
2023-02-13T20:44:07.412Z,0.72
2023-02-13T20:46:36.166Z,0.72
2023-02-13T20:49:03.336Z,0.73
2023-02-13T20:51:30.290Z,0.67
2023-02-13T20:56:25.314Z,0.45
2023-02-13T20:58:53.469Z,0.53
2023-02-13T21:01:35.471Z,0.60
2023-02-13T21:04:03.365Z,0.61
2023-02-13T21:06:35.237Z,0.61
2023-02-13T21:09:03.746Z,0.46
2023-02-13T21:11:34.824Z,0.41
2023-02-13T21:14:02.916Z,0.46
2023-02-13T21:16:34.436Z,0.39
2023-02-13T21:19:05.502Z,0.25
2023-02-13T21:21:34.834Z,0.34
2023-02-13T21:24:07.823Z,0.38
2023-02-13T21:26:35.173Z,0.32
2023-02-13T21:29:02.234Z,0.40
2023-02-13T21:31:34.728Z,0.26
2023-02-13T21:34:05.477Z,0.14
2023-02-13T21:36:33.045Z,0.21
2023-02-13T21:39:00.940Z,-0.01
2023-02-13T21:41:28.204Z,-0.06
2023-02-13T21:43:55.052Z,-0.08
2023-02-13T21:46:24.967Z,-0.06
2023-02-13T21:48:58.349Z,0.05
2023-02-13T21:51:26.889Z,0.08
2023-02-13T21:53:58.732Z,0.22
2023-02-13T21:56:28.526Z,0.17
2023-02-13T21:58:58.572Z,0.20
2023-02-13T22:01:29.948Z,0.09
2023-02-13T22:04:00.147Z,0.21
2023-02-13T22:06:29.768Z,0.04
2023-02-13T22:08:58.370Z,-0.05
2023-02-13T22:11:25.449Z,-0.12
2023-02-13T22:13:58.372Z,-0.03
2023-02-13T22:16:25.345Z,0.08
2023-02-13T22:18:52.223Z,0.07
2023-02-13T22:21:26.769Z,0.11
2023-02-13T22:23:53.673Z,0.07
2023-02-13T22:26:29.538Z,0.16
2023-02-13T22:28:58.473Z,0.18
2023-02-13T22:31:26.101Z,0.22
2023-02-13T22:34:03.385Z,0.22
2023-02-13T22:36:23.111Z,0.27
2023-02-13T22:38:51.181Z,0.27
2023-02-13T22:41:26.555Z,0.27
2023-02-13T22:43:53.752Z,0.30
2023-02-13T22:46:26.202Z,0.39
2023-02-13T22:48:54.309Z,0.30
2023-02-13T22:51:24.837Z,0.21
2023-02-13T22:56:24.730Z,0.56
2023-02-13T22:58:51.815Z,0.56
2023-02-13T23:01:20.832Z,0.68
2023-02-13T23:03:47.899Z,0.62
2023-02-13T23:06:15.668Z,0.49
2023-02-13T23:08:53.903Z,0.44
2023-02-13T23:11:43.990Z,0.55
2023-02-13T23:14:11.753Z,0.62
2023-02-13T23:16:58.402Z,0.63
2023-02-13T23:19:28.367Z,0.48
2023-02-13T23:21:55.644Z,0.42
2023-02-13T23:24:22.370Z,0.54
2023-02-13T23:26:49.182Z,0.53
2023-02-13T23:29:15.992Z,0.59
2023-02-13T23:31:42.914Z,0.51
2023-02-13T23:34:14.188Z,0.49
2023-02-13T23:36:41.293Z,0.58
2023-02-13T23:39:09.629Z,0.67
2023-02-13T23:41:36.344Z,0.78
2023-02-13T23:44:03.531Z,0.82
2023-02-13T23:46:30.512Z,0.73
2023-02-13T23:51:23.537Z,0.63
2023-02-13T23:53:50.329Z,0.72
2023-02-13T23:56:17.341Z,0.72
2023-02-13T23:58:44.047Z,0.83
